Latest Weather Observations for Hogan Island

IDT60801

Issued at 3:11 pm EST Monday 23 September 2019 (issued every 10 minutes, with the page automatically refreshed every 10 minutes)

About weather observations | Map of weather stations | Latest weather observations for TAS | Other Formats
Station Details ID: 200838 Name: HOGAN ISLAND Lat: -39.22 Lon: 146.98 Height: 116.0 m
Data from the previous 72 hours. | See also: Recent months at Hogan Island
Date/Time
EST
Temp
°C
App
Temp
°C
Dew
Point
°C
Rel
Hum
%
Delta-T
°C
Wind Press
QNH
hPa
Press
MSL
hPa
Rain since
9am
mm
Dir  Spd
km/h
Gust
km/h
Spd
kts
Gust
kts
23/03:00pm 12.4 3.5 11.9 97 0.3 W 50 57 27 31 1021.3 1021.4 0.4
23/02:30pm 12.7 2.9 11.4 92 0.7 W 54 63 29 34 1021.2 - 0.4
23/02:00pm 12.9 2.7 11.5 91 0.7 W 56 61 30 33 1021.0 - 0.4
23/01:30pm 12.5 2.5 10.9 90 0.8 W 54 59 29 32 1020.8 - 0.4
23/01:00pm 11.5 3.2 11.3 99 0.1 W 46 52 25 28 1020.9 - 0.4
23/12:30pm 10.9 2.5 10.9 100 0.0 W 46 56 25 30 1020.9 - 0.4
23/12:00pm 11.4 2.6 10.9 97 0.3 W 48 56 26 30 1020.7 1020.8 0.2
23/11:30am 10.0 -0.2 9.9 99 0.1 W 54 69 29 37 1020.6 - 0.2
23/11:00am 10.0 1.3 10.0 100 0.0 W 46 57 25 31 1020.3 - 0.2
23/10:30am 11.3 3.5 11.3 100 0.0 WNW 43 52 23 28 1020.4 - 0.2
23/10:00am 9.0 1.4 9.0 100 0.0 WNW 39 48 21 26 1020.6 - 0.2
23/09:30am 9.8 2.0 9.8 100 0.0 WNW 41 48 22 26 1020.3 - 0.0
23/09:00am 9.4 -0.2 9.4 100 0.0 WNW 50 59 27 32 1020.1 1020.2 0.4
23/08:30am 9.9 2.5 9.9 100 0.0 WNW 39 48 21 26 1020.1 - 0.4
23/08:00am 9.9 3.7 9.9 100 0.0 WNW 33 41 18 22 1020.0 - 0.4
23/07:30am 10.0 3.8 9.9 99 0.1 WNW 33 41 18 22 1019.9 - 0.4
23/07:00am 10.2 4.6 10.0 99 0.1 WNW 30 35 16 19 1019.6 - 0.4
23/06:30am 10.0 6.2 9.9 99 0.1 NW 20 26 11 14 1019.5 - 0.4
23/06:00am 9.9 6.1 9.8 99 0.1 NW 20 28 11 15 1019.3 1019.5 0.4
23/05:30am 9.9 5.3 9.8 99 0.1 WNW 24 30 13 16 1019.2 - 0.4
23/05:00am 10.2 6.4 9.9 98 0.2 WNW 20 24 11 13 1019.2 - 0.4
23/04:30am 10.1 6.2 9.3 95 0.4 WNW 20 24 11 13 1019.3 - 0.4
23/04:00am 10.0 5.6 8.9 93 0.5 WNW 22 24 12 13 1019.3 - 0.4
23/03:30am 9.8 5.2 8.2 90 0.8 WNW 22 28 12 15 1019.5 - 0.4
23/03:00am 10.2 4.1 8.3 88 0.9 WNW 30 33 16 18 1019.6 1019.8 0.4
23/02:30am 10.2 5.2 8.1 87 1.0 NW 24 30 13 16 1020.0 - 0.4
23/02:00am 10.3 4.7 8.6 89 0.8 NW 28 32 15 17 1020.3 - 0.4
23/01:30am 10.4 7.0 9.2 92 0.6 NNW 17 28 9 15 1020.5 - 0.4
23/01:00am 10.2 6.8 9.0 92 0.6 NNW 17 26 9 14 1020.9 - 0.4
23/12:30am 10.2 5.8 9.1 93 0.5 NNW 22 28 12 15 1021.1 - 0.4
23/12:00am 10.0 5.6 8.8 92 0.6 NW 22 28 12 15 1021.2 1021.3 0.4
 
Date/Time
EST
Temp
°C
App
Temp
°C
Dew
Point
°C
Rel
Hum
%
Delta-T
°C
Wind Press
QNH
hPa
Press
MSL
hPa
Rain since
9am
mm
Dir  Spd
km/h
Gust
km/h
Spd
kts
Gust
kts
22/11:30pm 10.1 6.6 8.7 91 0.7 NW 17 22 9 12 1021.4 - 0.4
22/11:00pm 10.3 6.3 8.9 91 0.7 WNW 20 22 11 12 1021.6 - 0.4
22/10:30pm 10.0 5.8 8.4 90 0.8 WNW 20 24 11 13 1021.7 - 0.4
22/10:00pm 10.0 5.4 8.3 89 0.8 WNW 22 24 12 13 1021.9 - 0.4
22/09:30pm 10.2 5.7 8.5 89 0.8 WNW 22 28 12 15 1022.0 - 0.4
22/09:00pm 10.2 4.9 8.5 89 0.8 W 26 30 14 16 1022.1 1022.2 0.4
22/08:30pm 10.3 4.6 8.4 88 0.9 W 28 32 15 17 1022.2 - 0.4
22/08:00pm 10.2 3.7 8.1 87 1.0 W 32 35 17 19 1022.2 - 0.4
22/07:30pm 10.2 3.7 8.1 87 1.0 W 32 37 17 20 1022.0 - 0.4
22/07:00pm 10.0 2.8 7.8 86 1.1 W 35 43 19 23 1021.7 - 0.4
22/06:30pm 10.0 2.8 7.6 85 1.2 W 35 43 19 23 1021.5 - 0.4
22/06:00pm 10.2 2.6 7.6 84 1.2 W 37 44 20 24 1021.2 1021.3 0.4
22/05:30pm 10.5 1.6 7.6 82 1.4 W 44 52 24 28 1021.0 - 0.4
22/05:00pm 10.4 0.8 7.8 84 1.3 W 48 56 26 30 1020.7 - 0.4
22/04:30pm 10.5 0.0 7.4 81 1.5 W 52 59 28 32 1020.5 - 0.4
22/04:00pm 10.7 -0.1 7.8 82 1.4 W 54 61 29 33 1020.3 - 0.4
22/03:30pm 10.9 0.1 7.6 80 1.6 W 54 67 29 36 1020.2 - 0.4
22/03:00pm 11.3 -0.1 7.4 77 1.9 W 57 67 31 36 1020.0 1020.1 0.4
22/02:30pm 12.1 1.0 8.2 77 1.9 W 56 63 30 34 1020.1 - 0.4
22/02:00pm 11.7 0.5 8.2 79 1.7 W 57 65 31 35 1020.1 - 0.4
22/01:30pm 11.8 0.8 8.6 81 1.6 W 56 65 30 35 1020.3 - 0.4
22/01:00pm 11.9 1.6 9.5 85 1.2 W 54 61 29 33 1020.5 - 0.4
22/12:30pm 11.2 0.0 8.2 82 1.5 WNW 57 67 31 36 1020.5 - 0.4
22/12:00pm 10.8 1.5 10.6 99 0.1 WNW 50 61 27 33 1020.6 1020.7 0.4
22/11:51am 10.4 3.5 10.4 100 0.0 W 37 59 20 32 1020.7 - 0.4
22/11:30am 9.1 0.7 9.1 100 0.0 W 43 52 23 28 1021.0 - 0.4
22/11:00am 8.5 -1.0 8.4 99 0.0 W 48 57 26 31 1020.8 - 0.2
22/10:30am 10.0 0.9 9.9 99 0.1 WNW 48 52 26 28 1020.4 - 0.0
22/10:00am 9.9 1.7 9.8 99 0.1 WNW 43 48 23 26 1020.5 - 0.0
22/09:30am 9.7 1.5 9.7 100 0.0 WNW 43 52 23 28 1020.4 - 0.0
22/09:00am 9.1 1.5 9.1 100 0.0 WNW 39 48 21 26 1020.5 1020.6 10.6
22/08:47am 7.4 -1.6 7.3 99 0.0 WNW 44 56 24 30 1020.6 - 10.2
22/08:33am 8.7 -0.7 8.7 100 0.0 W 48 56 26 30 1020.3 - 9.8
22/08:30am 9.0 0.0 9.0 100 0.0 WNW 46 56 25 30 1020.2 - 9.8
22/08:00am 8.4 1.9 8.3 99 0.0 NW 32 41 17 22 1020.3 - 9.8
22/07:30am 9.3 1.0 9.2 99 0.0 WNW 43 54 23 29 1019.6 - 9.6
22/07:00am 9.2 0.8 9.1 99 0.0 WNW 43 52 23 28 1019.1 - 9.6
22/06:30am 8.5 0.0 8.4 99 0.0 W 43 50 23 27 1018.8 - 9.4
22/06:00am 8.6 -1.8 7.8 95 0.4 W 52 59 28 32 1018.2 1018.4 9.4
22/05:30am 9.4 0.7 8.5 94 0.4 W 44 52 24 28 1017.8 - 9.4
22/05:00am 9.4 -0.7 8.8 96 0.3 W 52 59 28 32 1017.4 - 9.4
22/04:30am 9.3 -1.1 9.2 99 0.0 W 54 61 29 33 1017.1 - 9.4
22/04:00am 9.3 0.8 9.3 100 0.0 W 44 54 24 29 1017.0 - 9.4
22/03:30am 8.8 0.2 8.8 100 0.0 W 44 52 24 28 1016.9 - 9.2
22/03:00am 9.6 -0.7 9.5 99 0.0 W 54 61 29 33 1016.6 1016.7 9.2
22/02:30am 9.4 -1.0 9.4 100 0.0 W 54 63 29 34 1016.3 - 9.2
22/02:00am 10.1 0.7 10.1 100 0.0 W 50 65 27 35 1016.3 - 9.2
22/01:30am 9.9 1.8 9.9 100 0.0 W 43 50 23 27 1016.5 - 9.2
22/01:00am 10.3 2.6 10.3 100 0.0 W 41 46 22 25 1016.2 - 9.2
22/12:30am 10.4 1.4 10.2 99 0.1 W 48 56 26 30 1015.9 - 9.2
22/12:00am 10.2 0.8 10.0 99 0.1 W 50 59 27 32 1015.7 1015.8 9.2
 
Date/Time
EST
Temp
°C
App
Temp
°C
Dew
Point
°C
Rel
Hum
%
Delta-T
°C
Wind Press
QNH
hPa
Press
MSL
hPa
Rain since
9am
mm
Dir  Spd
km/h
Gust
km/h
Spd
kts
Gust
kts
21/11:30pm 10.2 0.0 10.0 99 0.1 W 54 59 29 32 1015.4 - 9.2
21/11:00pm 10.3 -0.5 10.1 99 0.1 W 57 65 31 35 1015.1 - 9.2
21/10:30pm 10.3 -0.5 10.1 99 0.1 W 57 69 31 37 1014.9 - 9.2
21/10:00pm 10.5 -0.1 10.5 100 0.0 W 57 65 31 35 1014.8 - 9.2
21/09:30pm 10.5 -0.9 10.5 100 0.0 W 61 72 33 39 1014.6 - 9.2
21/09:00pm 10.5 -1.7 10.5 100 0.0 W 65 76 35 41 1014.1 1014.2 9.2
21/08:30pm 10.7 -0.6 10.7 100 0.0 W 61 72 33 39 1013.5 - 9.2
21/08:00pm 10.5 -0.5 10.5 100 0.0 W 59 69 32 37 1013.2 - 9.2
21/07:30pm 10.7 -0.6 10.7 100 0.0 W 61 72 33 39 1012.8 - 9.2
21/07:00pm 11.4 -0.9 11.4 100 0.0 W 67 76 36 41 1011.7 - 9.2
21/06:30pm 11.5 0.8 11.5 100 0.0 W 59 65 32 35 1011.3 - 9.2
21/06:00pm 11.3 0.5 11.3 100 0.0 W 59 69 32 37 1010.5 1010.7 9.2
21/05:30pm 11.8 -0.7 11.8 100 0.0 W 69 80 37 43 1009.5 - 9.2
21/05:00pm 12.4 1.2 12.4 100 0.0 W 63 76 34 41 1008.9 - 9.2
21/04:58pm 12.7 1.6 12.7 100 0.0 W 63 76 34 41 1008.8 - 9.2
21/04:30pm 14.2 3.8 13.7 97 0.3 WNW 61 72 33 39 1007.8 - 9.2
21/04:00pm 14.6 4.8 14.4 99 0.1 WNW 59 69 32 37 1007.6 - 9.2
21/03:30pm 14.1 2.1 14.1 100 0.0 WNW 70 78 38 42 1006.9 - 9.2
21/03:20pm 14.1 4.6 14.1 100 0.0 WNW 57 76 31 41 1006.7 - 9.2
21/03:00pm 13.6 5.2 13.6 100 0.0 WNW 50 65 27 35 1006.7 1006.8 9.2
21/02:30pm 13.4 6.1 13.4 100 0.0 WNW 44 54 24 29 1007.1 - 9.2
21/02:22pm 13.1 3.2 13.1 100 0.0 WNW 57 76 31 41 1007.3 - 8.8
21/02:00pm 13.3 1.5 13.1 99 0.1 WNW 67 83 36 45 1006.7 - 6.8
21/01:52pm 14.1 2.9 12.3 89 1.0 NW 63 83 34 45 1005.6 - 3.8
21/01:50pm 15.9 6.5 12.8 82 1.7 NW 54 65 29 35 1005.8 - 2.6
21/01:48pm 17.6 11.2 13.3 76 2.4 N 39 57 21 31 1005.7 - 2.6
21/01:30pm 19.7 13.2 15.6 77 2.4 N 44 61 24 33 1005.2 - 2.6
21/01:00pm 17.6 10.6 15.2 86 1.4 N 46 59 25 32 1005.5 - 2.6
21/12:45pm 16.8 10.1 15.0 89 1.0 N 44 63 24 34 1005.7 - 2.6
21/12:30pm 17.2 11.6 16.6 96 0.4 N 41 54 22 29 1005.8 - 2.6
21/12:00pm 16.9 12.6 16.9 100 0.0 N 35 50 19 27 1006.2 1006.3 2.6
21/11:35am 16.0 10.6 16.0 100 0.0 N 39 70 21 38 1006.2 - 2.6
21/11:30am 15.3 6.2 15.3 100 0.0 N 57 76 31 41 1006.5 - 2.6
21/11:00am 15.6 4.6 15.4 99 0.1 N 67 89 36 48 1006.5 - 1.0
21/10:55am 15.1 2.8 13.1 88 1.1 N 70 89 38 48 1006.2 - 0.0
21/10:48am 19.4 8.4 16.4 83 1.8 N 69 83 37 45 1005.4 - 0.0
21/10:36am 18.1 11.2 15.7 86 1.4 N 46 67 25 36 1005.5 - 0.0
21/10:30am 17.4 11.1 15.6 89 1.1 N 43 56 23 30 1005.6 - 0.0
21/10:00am 16.7 10.7 15.4 92 0.8 N 41 46 22 25 1005.5 - 0.0
21/09:30am 16.0 11.3 15.8 99 0.1 N 35 44 19 24 1006.1 - 0.0
21/09:09am 15.0 10.0 15.0 100 0.0 N 35 54 19 29 1006.4 - 0.0
21/09:04am 15.1 10.7 15.1 100 0.0 NW 32 54 17 29 1007.2 - 0.0
21/09:00am 15.3 8.7 15.3 100 0.0 NNE 44 54 24 29 1006.1 1006.2 0.0
21/08:35am 14.9 7.8 14.9 100 0.0 NE 46 65 25 35 1005.6 - 0.0
21/08:30am 14.9 7.4 14.9 100 0.0 NNE 48 65 26 35 1005.7 - 0.0
21/08:00am 14.7 7.1 14.7 100 0.0 NE 48 59 26 32 1006.1 - 0.0
21/07:30am 14.7 7.1 14.7 100 0.0 NE 48 57 26 31 1006.6 - 0.0
21/07:00am 14.3 6.6 14.3 100 0.0 NE 48 59 26 32 1006.4 - 0.0
21/06:30am 14.1 5.5 14.1 100 0.0 NE 52 63 28 34 1006.6 - 0.0
21/06:00am 14.1 6.3 14.1 100 0.0 ENE 48 57 26 31 1007.1 1007.2 0.0
21/05:30am 14.6 7.0 14.6 100 0.0 NE 48 63 26 34 1007.5 - 0.0
21/05:00am 14.7 6.3 14.7 100 0.0 NE 52 69 28 37 1007.7 - 0.0
21/04:30am 15.0 5.7 14.8 99 0.1 NE 57 72 31 39 1007.8 - 0.0
21/04:00am 15.0 5.9 14.8 99 0.1 NE 56 67 30 36 1008.1 - 0.0
21/03:30am 15.1 6.5 15.1 100 0.0 NE 54 65 29 35 1008.6 - 0.0
21/03:00am 15.2 7.8 15.2 100 0.0 NE 48 59 26 32 1009.1 1009.2 0.0
21/02:30am 14.7 8.0 14.7 100 0.0 NE 43 54 23 29 1009.6 - 0.0
21/02:00am 14.6 9.4 14.6 100 0.0 NE 35 44 19 24 1010.2 - 0.0
21/01:30am 14.0 10.0 14.0 100 0.0 NE 28 37 15 20 1011.1 - 0.0
21/01:00am 14.2 10.6 14.2 100 0.0 NE 26 35 14 19 1011.7 - 0.0
21/12:30am 15.4 - 15.6 - - NNE 28 35 15 19 1011.9 - 0.0
21/12:00am 14.0 - 14.2 - - NNE 26 33 14 18 1012.2 1012.3 0.0
 
Date/Time
EST
Temp
°C
App
Temp
°C
Dew
Point
°C
Rel
Hum
%
Delta-T
°C
Wind Press
QNH
hPa
Press
MSL
hPa
Rain since
9am
mm
Dir  Spd
km/h
Gust
km/h
Spd
kts
Gust
kts
20/11:30pm 13.6 - 13.8 - - NNE 26 33 14 18 1012.8 - 0.0
20/11:00pm 13.8 - 14.0 - - NE 28 37 15 20 1013.1 - 0.0
20/10:30pm 13.6 - 13.8 - - ENE 24 33 13 18 1013.3 - 0.0
20/10:00pm 14.0 - 14.2 - - NE 26 37 14 20 1013.9 - 0.0
20/09:30pm 14.3 - 14.5 - - NE 28 35 15 19 1014.4 - 0.0
20/09:00pm 14.4 - 14.6 - - NE 30 39 16 21 1014.8 1014.9 0.0
20/08:30pm 14.6 - 14.8 - - NE 30 39 16 21 1014.9 - 0.0
20/08:00pm 14.4 - 14.6 - - NE 30 35 16 19 1015.1 - 0.0
20/07:30pm 14.2 10.2 14.2 100 0.0 NE 28 37 15 20 1015.2 - 0.0
20/07:00pm 14.4 10.5 14.4 100 0.0 NE 28 35 15 19 1015.1 - 0.0
20/06:30pm 14.3 10.7 14.3 100 0.0 NE 26 35 14 19 1015.0 - 0.0
20/06:00pm 14.5 11.7 14.3 99 0.1 NE 22 30 12 16 1015.1 1015.2 0.0
20/05:30pm 15.1 12.1 13.8 92 0.7 NE 22 32 12 17 1015.1 - 0.0
20/05:00pm 16.1 12.2 14.3 89 1.0 NE 28 37 15 20 1015.3 - 0.0
20/04:30pm 16.7 13.8 15.1 90 0.9 NE 24 33 13 18 1015.3 - 0.0
20/04:00pm 17.1 15.6 15.3 89 1.1 NE 17 24 9 13 1015.5 - 0.0
20/03:30pm 17.2 15.6 15.9 92 0.8 NE 19 24 10 13 1015.5 - 0.0

Other formats

Comma delimited format used in spreadsheet applications
http://www.bom.gov.au/fwo/IDT60801/IDT60801.94949.axf

JavaScript Object Notation format (JSON) in row-major order
http://www.bom.gov.au/fwo/IDT60801/IDT60801.94949.json

Data quality

Most of these data are generated automatically and are frequently updated. Quality checks on data are not normally performed. It is possible for incorrect values to appear. Refer to information at About Latest Weather Observations and please check the disclaimer before using these data.